Time;durP1;ratioP1;P1;durP2;ratioP2;P2;SDS_P1;SDS_P2;PMS_P1;PMS_P2;Temp;Humidity;BMP_temperature;BMP_pressure;BME280_temperature;BME280_humidity;BME280_pressure;Samples;Min_cycle;Max_cycle;Signal;HPM_P1;HPM_P2
2023/03/11 00:00:33;;;;;;;0.90;0.90;;;;;;;;;;5013391;28;20256;-80
2023/03/11 00:03:01;;;;;;;0.90;0.90;;;;;;;;;;5012492;28;20211;-82
2023/03/11 00:05:31;;;;;;;0.87;0.87;;;;;;;;;;5006022;28;20177;-83
2023/03/11 00:07:57;;;;;;;0.90;0.90;;;;;;;;;;4999629;28;20173;-82
2023/03/11 00:10:30;;;;;;;0.90;0.90;;;;;;;;;;5001575;28;20173;-82
2023/03/11 00:12:57;;;;;;;0.80;0.80;;;;;;;;;;5001013;28;20244;-82
2023/03/11 00:15:23;;;;;;;0.90;0.90;;;;;;;;;;5000909;28;20200;-82
2023/03/11 00:17:49;;;;;;;0.90;0.90;;;;;;;;;;5001238;28;20183;-83
2023/03/11 00:20:17;;;;;;;0.77;0.77;;;;;;;;;;5000368;28;20233;-82
2023/03/11 00:22:43;;;;;;;0.90;0.90;;;;;;;;;;5000978;28;20197;-83
2023/03/11 00:25:10;;;;;;;0.80;0.80;;;;;;;;;;5001824;28;20181;-82
2023/03/11 00:27:36;;;;;;;0.90;0.90;;;;;;;;;;5001767;28;20177;-83
2023/03/11 00:30:02;;;;;;;0.90;0.90;;;;;;;;;;5010587;28;20165;-81
2023/03/11 00:32:28;;;;;;;0.90;0.90;;;;;;;;;;5018504;28;20189;-80
2023/03/11 00:34:54;;;;;;;0.90;0.90;;;;;;;;;;5019217;28;20173;-82
2023/03/11 00:37:20;;;;;;;0.80;0.80;;;;;;;;;;5005884;28;20246;-83
2023/03/11 00:39:46;;;;;;;1.00;1.00;;;;;;;;;;5000178;28;20564;-83
2023/03/11 00:42:12;;;;;;;1.00;1.00;;;;;;;;;;4999543;28;20186;-82
2023/03/11 00:44:38;;;;;;;0.90;0.90;;;;;;;;;;4997211;28;20277;-84
2023/03/11 00:47:04;;;;;;;0.87;0.87;;;;;;;;;;5000342;28;20177;-82
2023/03/11 00:49:30;;;;;;;0.83;0.83;;;;;;;;;;4999817;28;20185;-83
2023/03/11 00:51:56;;;;;;;1.00;1.00;;;;;;;;;;4999741;28;20207;-82
2023/03/11 00:54:22;;;;;;;0.90;0.90;;;;;;;;;;4998338;28;20197;-83
2023/03/11 00:56:48;;;;;;;0.80;0.80;;;;;;;;;;5000161;28;20181;-83
2023/03/11 00:59:14;;;;;;;0.90;0.90;;;;;;;;;;4999212;28;20556;-84
2023/03/11 01:01:40;;;;;;;0.80;0.80;;;;;;;;;;5000062;28;20216;-83
2023/03/11 01:04:06;;;;;;;0.80;0.80;;;;;;;;;;4998771;28;20752;-82
2023/03/11 01:06:32;;;;;;;0.90;0.90;;;;;;;;;;4999356;28;20227;-84
2023/03/11 01:08:58;;;;;;;0.97;0.97;;;;;;;;;;4999787;28;20590;-83
2023/03/11 01:11:24;;;;;;;0.90;0.90;;;;;;;;;;5000340;28;20185;-82
2023/03/11 01:13:50;;;;;;;0.90;0.90;;;;;;;;;;4999247;28;20336;-82
2023/03/11 01:16:16;;;;;;;0.90;0.90;;;;;;;;;;5000265;28;20177;-83
2023/03/11 01:18:42;;;;;;;0.90;0.90;;;;;;;;;;4999082;28;20189;-82
2023/03/11 01:21:07;;;;;;;0.90;0.90;;;;;;;;;;4999699;28;20212;-83
2023/03/11 01:23:33;;;;;;;0.90;0.90;;;;;;;;;;5000341;28;20197;-82
2023/03/11 01:25:59;;;;;;;0.80;0.80;;;;;;;;;;5000698;28;20181;-83
2023/03/11 01:28:25;;;;;;;0.80;0.80;;;;;;;;;;5000488;28;20184;-83
2023/03/11 01:30:51;;;;;;;0.90;0.90;;;;;;;;;;5000623;28;20328;-83
2023/03/11 01:33:18;;;;;;;1.00;1.00;;;;;;;;;;5001337;28;20196;-83
2023/03/11 01:35:45;;;;;;;0.87;0.87;;;;;;;;;;5016218;28;20194;-81
2023/03/11 01:38:12;;;;;;;0.80;0.80;;;;;;;;;;5018746;28;20169;-81
2023/03/11 01:40:40;;;;;;;0.90;0.90;;;;;;;;;;5018662;28;20193;-81
2023/03/11 01:43:27;;;;;;;0.80;0.80;;;;;;;;;;5018298;28;20195;-81
2023/03/11 01:45:53;;;;;;;0.90;0.90;;;;;;;;;;5018615;28;20182;-83
2023/03/11 01:48:18;;;;;;;0.90;0.90;;;;;;;;;;5018624;28;20272;-82
2023/03/11 01:50:48;;;;;;;1.00;1.00;;;;;;;;;;5018408;28;20165;-81
2023/03/11 01:53:15;;;;;;;0.80;0.80;;;;;;;;;;5013445;28;20208;-81
2023/03/11 01:55:42;;;;;;;0.83;0.83;;;;;;;;;;5001885;28;20265;-82
2023/03/11 01:58:11;;;;;;;0.80;0.80;;;;;;;;;;4997049;28;20224;-82
2023/03/11 02:00:37;;;;;;;1.00;1.00;;;;;;;;;;4997105;28;20213;-82
2023/03/11 02:03:08;;;;;;;0.90;0.90;;;;;;;;;;4996333;28;20193;-83
2023/03/11 02:05:34;;;;;;;0.90;0.90;;;;;;;;;;4996876;28;20181;-82
2023/03/11 02:08:01;;;;;;;0.80;0.80;;;;;;;;;;4996515;28;20177;-83
2023/03/11 02:10:27;;;;;;;0.90;0.90;;;;;;;;;;4996884;28;20184;-83
2023/03/11 02:12:53;;;;;;;1.00;1.00;;;;;;;;;;4996037;28;20205;-83
2023/03/11 02:15:19;;;;;;;0.90;0.90;;;;;;;;;;4997048;28;20185;-83
2023/03/11 02:17:45;;;;;;;0.90;0.90;;;;;;;;;;4996798;28;20204;-81
2023/03/11 02:20:20;;;;;;;0.90;0.90;;;;;;;;;;4996416;28;20228;-81
2023/03/11 02:22:47;;;;;;;0.90;0.90;;;;;;;;;;4996461;28;20196;-83
2023/03/11 02:25:20;;;;;;;0.90;0.90;;;;;;;;;;4996272;28;20589;-82
2023/03/11 02:27:47;;;;;;;0.90;0.90;;;;;;;;;;4996930;28;20177;-82
2023/03/11 02:30:14;;;;;;;0.90;0.90;;;;;;;;;;4995358;28;20173;-83
2023/03/11 02:32:41;;;;;;;0.90;0.90;;;;;;;;;;4996354;28;20197;-86
2023/03/11 02:35:07;;;;;;;0.93;0.93;;;;;;;;;;4996032;28;20177;-82
2023/03/11 02:37:33;;;;;;;1.00;1.00;;;;;;;;;;4996293;28;20276;-82
2023/03/11 02:40:29;;;;;;;0.80;0.80;;;;;;;;;;4996199;28;20591;-83
2023/03/11 02:42:59;;;;;;;0.90;0.90;;;;;;;;;;4996362;28;20221;-82
2023/03/11 02:45:26;;;;;;;0.90;0.90;;;;;;;;;;4996122;28;20181;-83
2023/03/11 02:47:56;;;;;;;0.90;0.90;;;;;;;;;;4996750;28;20602;-82
2023/03/11 02:50:22;;;;;;;0.90;0.90;;;;;;;;;;4996516;28;20783;-83
2023/03/11 02:52:49;;;;;;;0.90;0.90;;;;;;;;;;4995118;28;20196;-83
2023/03/11 02:55:16;;;;;;;0.80;0.80;;;;;;;;;;4996436;28;20561;-82
2023/03/11 02:57:43;;;;;;;0.83;0.83;;;;;;;;;;4995558;28;20192;-82
2023/03/11 03:00:10;;;;;;;0.87;0.87;;;;;;;;;;4996387;28;20227;-83
2023/03/11 03:02:36;;;;;;;0.90;0.90;;;;;;;;;;4995752;28;20211;-84
2023/03/11 03:05:02;;;;;;;0.90;0.90;;;;;;;;;;4997201;28;20185;-83
2023/03/11 03:07:28;;;;;;;0.90;0.90;;;;;;;;;;4996984;28;20177;-83
2023/03/11 03:09:54;;;;;;;1.00;1.00;;;;;;;;;;4997171;28;20192;-83
2023/03/11 03:12:20;;;;;;;0.90;0.90;;;;;;;;;;4996949;28;20672;-82
2023/03/11 03:14:46;;;;;;;0.90;0.90;;;;;;;;;;4997703;28;20185;-83
2023/03/11 03:17:12;;;;;;;0.87;0.87;;;;;;;;;;4998601;28;20326;-83
2023/03/11 03:19:38;;;;;;;0.80;0.80;;;;;;;;;;4998327;28;20217;-83
2023/03/11 03:22:04;;;;;;;0.80;0.80;;;;;;;;;;4997789;28;20174;-82
2023/03/11 03:24:30;;;;;;;0.90;0.90;;;;;;;;;;4998463;28;20180;-83
2023/03/11 03:26:56;;;;;;;1.00;1.00;;;;;;;;;;4997695;28;20544;-82
2023/03/11 03:29:22;;;;;;;0.80;0.80;;;;;;;;;;4997004;28;20231;-82
2023/03/11 03:31:48;;;;;;;0.90;0.90;;;;;;;;;;4998024;28;20178;-83
2023/03/11 03:34:14;;;;;;;0.90;0.90;;;;;;;;;;5013092;28;20192;-80
2023/03/11 03:36:40;;;;;;;0.90;0.90;;;;;;;;;;5017299;28;20165;-81
2023/03/11 03:39:06;;;;;;;0.90;0.90;;;;;;;;;;5017289;28;20233;-82
2023/03/11 03:41:32;;;;;;;0.90;0.90;;;;;;;;;;5017613;28;20177;-81
2023/03/11 03:43:58;;;;;;;0.80;0.80;;;;;;;;;;5003232;28;20268;-81
2023/03/11 03:46:24;;;;;;;0.90;0.90;;;;;;;;;;4999356;28;20193;-81
2023/03/11 03:48:50;;;;;;;0.80;0.80;;;;;;;;;;5002452;28;20184;-82
2023/03/11 03:51:16;;;;;;;0.90;0.90;;;;;;;;;;5014325;28;20181;-82
2023/03/11 03:53:45;;;;;;;0.80;0.80;;;;;;;;;;5019954;28;20223;-81
2023/03/11 03:56:13;;;;;;;0.90;0.90;;;;;;;;;;5020178;28;20159;-81
2023/03/11 03:58:39;;;;;;;0.90;0.90;;;;;;;;;;5000129;28;20303;-82
2023/03/11 04:01:06;;;;;;;1.00;1.00;;;;;;;;;;4998753;28;20212;-83
2023/03/11 04:03:33;;;;;;;0.90;0.90;;;;;;;;;;4999788;28;20208;-82
2023/03/11 04:06:07;;;;;;;1.00;1.00;;;;;;;;;;5000692;28;20272;-82
2023/03/11 04:08:33;;;;;;;0.90;0.90;;;;;;;;;;5001058;28;20185;-83
2023/03/11 04:10:59;;;;;;;0.90;0.90;;;;;;;;;;5013628;28;20560;-80
2023/03/11 04:13:24;;;;;;;0.90;0.90;;;;;;;;;;5016971;28;20204;-81
2023/03/11 04:15:50;;;;;;;0.80;0.80;;;;;;;;;;5016803;28;20205;-82
2023/03/11 04:18:16;;;;;;;0.90;0.90;;;;;;;;;;5009505;28;20525;-82
2023/03/11 04:20:42;;;;;;;0.90;0.90;;;;;;;;;;4997672;28;20212;-82
2023/03/11 04:23:08;;;;;;;0.90;0.90;;;;;;;;;;4996708;28;20204;-82
2023/03/11 04:25:34;;;;;;;1.00;1.00;;;;;;;;;;4996865;28;20212;-83
2023/03/11 04:28:00;;;;;;;1.00;1.00;;;;;;;;;;4996843;28;20177;-81
2023/03/11 04:30:26;;;;;;;0.90;0.90;;;;;;;;;;4997291;28;20181;-81
2023/03/11 04:32:52;;;;;;;0.90;0.90;;;;;;;;;;4996508;28;20676;-82
2023/03/11 04:35:18;;;;;;;0.80;0.80;;;;;;;;;;4997002;28;20181;-82
2023/03/11 04:37:44;;;;;;;0.90;0.90;;;;;;;;;;4997503;28;20192;-81
2023/03/11 04:40:10;;;;;;;0.90;0.90;;;;;;;;;;4997613;28;20220;-82
2023/03/11 04:42:37;;;;;;;1.00;1.00;;;;;;;;;;4996822;28;20200;-82
2023/03/11 04:45:04;;;;;;;0.90;0.90;;;;;;;;;;4997246;28;20185;-81
2023/03/11 04:47:30;;;;;;;0.90;0.90;;;;;;;;;;4997314;28;20201;-82
2023/03/11 04:49:56;;;;;;;0.90;0.90;;;;;;;;;;4996998;28;20192;-82
2023/03/11 04:52:22;;;;;;;0.90;0.90;;;;;;;;;;4997467;28;20732;-83
2023/03/11 04:54:48;;;;;;;0.90;0.90;;;;;;;;;;4996765;28;20176;-82
2023/03/11 04:57:14;;;;;;;0.90;0.90;;;;;;;;;;4997421;28;20201;-81
2023/03/11 04:59:40;;;;;;;0.80;0.80;;;;;;;;;;4996442;28;20259;-82
2023/03/11 05:02:06;;;;;;;0.93;0.93;;;;;;;;;;4996586;28;20181;-81
2023/03/11 05:04:32;;;;;;;0.83;0.83;;;;;;;;;;4997043;28;20193;-82
2023/03/11 05:06:58;;;;;;;0.90;0.90;;;;;;;;;;4997071;28;20184;-83
2023/03/11 05:09:24;;;;;;;1.00;1.00;;;;;;;;;;4997069;28;20169;-83
2023/03/11 05:11:50;;;;;;;0.80;0.80;;;;;;;;;;4997648;28;20276;-83
2023/03/11 05:14:16;;;;;;;0.83;0.83;;;;;;;;;;4998524;28;20217;-83
2023/03/11 05:16:42;;;;;;;0.90;0.90;;;;;;;;;;4999210;28;20633;-83
2023/03/11 05:21:53;;;;;;;0.90;0.90;;;;;;;;;;5000064;28;20208;-82
2023/03/11 05:24:19;;;;;;;0.90;0.90;;;;;;;;;;4999430;28;20197;-82
2023/03/11 05:26:45;;;;;;;0.90;0.90;;;;;;;;;;4999306;28;20231;-82
2023/03/11 05:29:11;;;;;;;0.90;0.90;;;;;;;;;;4999706;28;20592;-83
2023/03/11 05:31:37;;;;;;;0.80;0.80;;;;;;;;;;4999841;28;20192;-81
2023/03/11 05:34:03;;;;;;;0.90;0.90;;;;;;;;;;4999803;28;20201;-83
2023/03/11 05:36:29;;;;;;;0.90;0.90;;;;;;;;;;5000621;28;20185;-82
2023/03/11 05:38:55;;;;;;;0.90;0.90;;;;;;;;;;4999961;28;20243;-83
2023/03/11 05:41:22;;;;;;;1.00;1.00;;;;;;;;;;5000054;28;20224;-82
2023/03/11 05:43:48;;;;;;;0.90;0.90;;;;;;;;;;4998871;28;20201;-82
2023/03/11 05:46:14;;;;;;;0.87;0.87;;;;;;;;;;5000432;28;20553;-82
2023/03/11 05:48:40;;;;;;;0.80;0.80;;;;;;;;;;5000522;28;20212;-81
2023/03/11 05:51:10;;;;;;;1.00;1.00;;;;;;;;;;5000839;28;20203;-86
2023/03/11 05:53:36;;;;;;;0.90;0.90;;;;;;;;;;5000416;28;20205;-82
2023/03/11 05:56:02;;;;;;;0.90;0.90;;;;;;;;;;5001696;28;20181;-81
2023/03/11 05:58:29;;;;;;;0.90;0.90;;;;;;;;;;5013308;28;20166;-80
2023/03/11 06:00:55;;;;;;;0.90;0.90;;;;;;;;;;5017861;28;20296;-80
2023/03/11 06:03:21;;;;;;;1.00;1.00;;;;;;;;;;5010617;28;20197;-82
2023/03/11 06:05:48;;;;;;;0.90;0.90;;;;;;;;;;4999628;28;20272;-82
2023/03/11 06:08:14;;;;;;;0.90;0.90;;;;;;;;;;4999982;28;20276;-82
2023/03/11 06:10:40;;;;;;;0.80;0.80;;;;;;;;;;5000558;28;20739;-82
2023/03/11 06:13:07;;;;;;;0.80;0.80;;;;;;;;;;4999804;28;20233;-80
2023/03/11 06:15:33;;;;;;;1.00;1.00;;;;;;;;;;5000268;28;20169;-82
2023/03/11 06:17:59;;;;;;;0.90;0.90;;;;;;;;;;5000000;28;20185;-82
2023/03/11 06:20:25;;;;;;;0.83;0.83;;;;;;;;;;5000280;28;20305;-80
2023/03/11 06:22:51;;;;;;;0.90;0.90;;;;;;;;;;5015778;28;20196;-80
2023/03/11 06:25:17;;;;;;;0.90;0.90;;;;;;;;;;5015930;28;20176;-80
2023/03/11 06:27:44;;;;;;;0.90;0.90;;;;;;;;;;5016399;28;20232;-80
2023/03/11 06:30:11;;;;;;;0.90;0.90;;;;;;;;;;5014158;28;20189;-82
2023/03/11 06:32:37;;;;;;;0.90;0.90;;;;;;;;;;4997969;28;20247;-81
2023/03/11 06:35:03;;;;;;;0.80;0.80;;;;;;;;;;4998674;28;20177;-82
2023/03/11 06:37:30;;;;;;;1.00;1.00;;;;;;;;;;4998910;28;20188;-82
2023/03/11 06:39:55;;;;;;;0.90;0.90;;;;;;;;;;4998833;28;20614;-81
2023/03/11 06:42:25;;;;;;;0.90;0.90;;;;;;;;;;4999186;28;20181;-82
2023/03/11 06:44:51;;;;;;;0.90;0.90;;;;;;;;;;4999225;28;20185;-82
2023/03/11 06:47:17;;;;;;;0.80;0.80;;;;;;;;;;5003362;28;20188;-83
2023/03/11 06:49:43;;;;;;;0.90;0.90;;;;;;;;;;5004344;28;20182;-82
2023/03/11 06:52:09;;;;;;;0.80;0.80;;;;;;;;;;5005295;28;20337;-82
2023/03/11 06:54:35;;;;;;;0.90;0.90;;;;;;;;;;5003376;28;20696;-81
2023/03/11 06:57:01;;;;;;;0.90;0.90;;;;;;;;;;5004538;28;20320;-81
2023/03/11 06:59:27;;;;;;;0.90;0.90;;;;;;;;;;5001493;28;20216;-79
2023/03/11 07:01:54;;;;;;;0.90;0.90;;;;;;;;;;5001640;28;20174;-83
2023/03/11 07:04:20;;;;;;;0.93;0.93;;;;;;;;;;4997595;28;20209;-82
2023/03/11 07:06:46;;;;;;;0.90;0.90;;;;;;;;;;4997024;28;20695;-84
2023/03/11 07:09:12;;;;;;;0.70;0.70;;;;;;;;;;4998336;28;20177;-81
2023/03/11 07:11:38;;;;;;;0.70;0.70;;;;;;;;;;4998078;28;20183;-83
2023/03/11 07:14:05;;;;;;;0.80;0.80;;;;;;;;;;4997590;28;20201;-84
2023/03/11 07:16:31;;;;;;;0.70;0.70;;;;;;;;;;4997065;28;20224;-82
2023/03/11 07:18:59;;;;;;;0.80;0.80;;;;;;;;;;4996056;28;20193;-84
2023/03/11 07:21:26;;;;;;;0.53;0.53;;;;;;;;;;4997422;28;20209;-85
2023/03/11 07:23:53;;;;;;;0.60;0.60;;;;;;;;;;4997740;28;20220;-86
2023/03/11 07:26:19;;;;;;;0.60;0.60;;;;;;;;;;4997626;28;20188;-86
2023/03/11 07:28:51;;;;;;;0.60;0.60;;;;;;;;;;4997281;28;20180;-86
2023/03/11 07:31:22;;;;;;;0.53;0.53;;;;;;;;;;4995524;28;20177;-86
2023/03/11 07:33:48;;;;;;;0.70;0.70;;;;;;;;;;4999106;28;20197;-86
2023/03/11 07:36:17;;;;;;;0.60;0.60;;;;;;;;;;4998198;28;20176;-86
2023/03/11 07:38:43;;;;;;;0.80;0.80;;;;;;;;;;4998206;28;20652;-82
2023/03/11 07:41:11;;;;;;;0.70;0.70;;;;;;;;;;4997252;28;20224;-83
2023/03/11 07:43:37;;;;;;;0.70;0.70;;;;;;;;;;4997307;28;20201;-84
2023/03/11 07:46:04;;;;;;;0.70;0.70;;;;;;;;;;4997458;28;20184;-84
2023/03/11 07:48:31;;;;;;;0.63;0.63;;;;;;;;;;4997210;28;20224;-85
2023/03/11 07:51:01;;;;;;;0.43;0.43;;;;;;;;;;4996317;28;20673;-85
2023/03/11 07:53:27;;;;;;;0.70;0.70;;;;;;;;;;4996464;28;20276;-86
2023/03/11 07:55:57;;;;;;;0.40;0.40;;;;;;;;;;4996408;28;20193;-86
2023/03/11 07:58:23;;;;;;;0.40;0.40;;;;;;;;;;4996634;28;20174;-85
2023/03/11 08:00:49;;;;;;;0.50;0.50;;;;;;;;;;4996238;28;20212;-85
2023/03/11 08:03:15;;;;;;;0.53;0.53;;;;;;;;;;4996855;28;20207;-85
2023/03/11 08:05:41;;;;;;;0.40;0.40;;;;;;;;;;4997776;28;20189;-85
2023/03/11 08:08:07;;;;;;;0.50;0.50;;;;;;;;;;4997814;28;20197;-84
2023/03/11 08:10:35;;;;;;;0.50;0.50;;;;;;;;;;4998628;28;20652;-86
2023/03/11 08:13:01;;;;;;;0.50;0.50;;;;;;;;;;4998229;28;20685;-85
2023/03/11 08:15:27;;;;;;;0.60;0.60;;;;;;;;;;4998692;28;20174;-85
2023/03/11 08:17:53;;;;;;;0.57;0.57;;;;;;;;;;4999420;28;20205;-84
2023/03/11 08:20:19;;;;;;;0.40;0.40;;;;;;;;;;4999236;28;20339;-86
2023/03/11 08:22:45;;;;;;;0.30;0.30;;;;;;;;;;4999809;28;20201;-84
2023/03/11 08:25:11;;;;;;;0.30;0.30;;;;;;;;;;5002081;28;20177;-84
2023/03/11 08:27:37;;;;;;;0.40;0.40;;;;;;;;;;5013920;28;20328;-83
2023/03/11 08:30:04;;;;;;;0.30;0.30;;;;;;;;;;5015174;28;20235;-81
2023/03/11 08:32:30;;;;;;;0.50;0.50;;;;;;;;;;5016642;28;20197;-82
2023/03/11 08:34:56;;;;;;;0.30;0.30;;;;;;;;;;5011045;28;20593;-83
2023/03/11 08:37:22;;;;;;;0.30;0.30;;;;;;;;;;5009292;28;20208;-83
2023/03/11 08:39:48;;;;;;;0.30;0.30;;;;;;;;;;5014079;28;20209;-83
2023/03/11 08:42:15;;;;;;;0.40;0.40;;;;;;;;;;5013581;28;20276;-83
2023/03/11 08:44:41;;;;;;;0.40;0.40;;;;;;;;;;5012132;28;20184;-84
2023/03/11 08:47:07;;;;;;;0.40;0.40;;;;;;;;;;5010370;28;20182;-83
2023/03/11 08:49:33;;;;;;;0.43;0.43;;;;;;;;;;5003027;28;20189;-83
2023/03/11 08:52:01;;;;;;;0.40;0.40;;;;;;;;;;5002083;28;20173;-82
2023/03/11 08:54:27;;;;;;;0.30;0.30;;;;;;;;;;5001808;28;20201;-84
2023/03/11 08:56:53;;;;;;;0.40;0.40;;;;;;;;;;5002244;28;20185;-84
2023/03/11 08:59:19;;;;;;;0.30;0.30;;;;;;;;;;5000921;28;20193;-84
2023/03/11 09:01:45;;;;;;;0.30;0.30;;;;;;;;;;4994172;28;20205;-85
2023/03/11 09:04:12;;;;;;;0.50;0.50;;;;;;;;;;4993415;28;20316;-86
2023/03/11 09:06:41;;;;;;;0.50;0.50;;;;;;;;;;5001103;28;20653;-82
2023/03/11 09:09:07;;;;;;;0.50;0.50;;;;;;;;;;4999847;28;20174;-84
2023/03/11 09:11:36;;;;;;;0.50;0.50;;;;;;;;;;5000831;28;20184;-84
2023/03/11 09:14:02;;;;;;;0.60;0.60;;;;;;;;;;4998534;28;20739;-84
2023/03/11 09:16:28;;;;;;;0.60;0.60;;;;;;;;;;5011453;28;20172;-81
2023/03/11 09:18:54;;;;;;;0.57;0.57;;;;;;;;;;5012866;28;20197;-88
2023/03/11 09:21:20;;;;;;;0.50;0.50;;;;;;;;;;5000001;28;20209;-86
2023/03/11 09:23:46;;;;;;;0.60;0.60;;;;;;;;;;5011689;28;20177;-88
2023/03/11 09:26:13;;;;;;;0.40;0.40;;;;;;;;;;5018101;28;20244;-86
2023/03/11 09:28:39;;;;;;;0.40;0.40;;;;;;;;;;5017411;28;20161;-82
2023/03/11 09:31:05;;;;;;;0.40;0.40;;;;;;;;;;5018268;28;20184;-84
2023/03/11 09:33:31;;;;;;;0.60;0.60;;;;;;;;;;5005389;28;20194;-84
2023/03/11 09:35:58;;;;;;;0.60;0.60;;;;;;;;;;4999476;28;20180;-83
2023/03/11 09:38:24;;;;;;;0.60;0.60;;;;;;;;;;4999896;28;20280;-86
2023/03/11 09:40:59;;;;;;;0.60;0.60;;;;;;;;;;4997280;28;20577;-83
2023/03/11 09:43:25;;;;;;;0.57;0.57;;;;;;;;;;4997094;28;20232;-85
2023/03/11 09:45:55;;;;;;;0.60;0.60;;;;;;;;;;4997890;28;20193;-81
2023/03/11 09:48:29;;;;;;;0.57;0.57;;;;;;;;;;4997221;28;20169;-81
2023/03/11 09:51:00;;;;;;;0.40;0.40;;;;;;;;;;4996376;28;20473;-82
2023/03/11 09:53:32;;;;;;;0.50;0.50;;;;;;;;;;4997850;28;20252;-82
2023/03/11 09:55:59;;;;;;;0.40;0.40;;;;;;;;;;4990181;28;20204;-79
2023/03/11 09:58:34;;;;;;;0.40;0.40;;;;;;;;;;4999551;28;20173;-81
2023/03/11 10:01:01;;;;;;;0.30;0.30;;;;;;;;;;5016454;28;20208;-82
2023/03/11 10:03:30;;;;;;;0.30;0.30;;;;;;;;;;5015154;28;20194;-82
2023/03/11 10:06:00;;;;;;;0.30;0.30;;;;;;;;;;5001466;28;20190;-83
2023/03/11 10:08:47;;;;;;;0.50;0.50;;;;;;;;;;4995976;28;20262;-82
2023/03/11 10:11:27;;;;;;;0.60;0.60;;;;;;;;;;4997562;28;20268;-81
2023/03/11 10:14:12;;;;;;;0.70;0.70;;;;;;;;;;4996861;28;20209;-81
2023/03/11 10:16:54;;;;;;;0.60;0.60;;;;;;;;;;4998302;28;20199;-82
2023/03/11 10:19:29;;;;;;;0.70;0.70;;;;;;;;;;4997904;28;20189;-84
2023/03/11 10:22:12;;;;;;;0.70;0.70;;;;;;;;;;4998687;28;20181;-84
2023/03/11 10:24:45;;;;;;;0.60;0.60;;;;;;;;;;4997827;28;20657;-85
2023/03/11 10:27:23;;;;;;;0.50;0.50;;;;;;;;;;4997814;28;20209;-83
2023/03/11 10:29:59;;;;;;;0.50;0.50;;;;;;;;;;4998365;28;20259;-82
2023/03/11 10:32:31;;;;;;;0.50;0.50;;;;;;;;;;4995978;28;20204;-83
2023/03/11 10:35:18;;;;;;;0.50;0.50;;;;;;;;;;4996390;28;20184;-81
2023/03/11 10:37:47;;;;;;;0.40;0.40;;;;;;;;;;4996968;28;20571;-81
2023/03/11 10:40:28;;;;;;;0.60;0.60;;;;;;;;;;4998733;28;20682;-82
2023/03/11 10:42:55;;;;;;;0.60;0.60;;;;;;;;;;4994388;28;20235;-84
2023/03/11 10:45:22;;;;;;;0.53;0.53;;;;;;;;;;4997658;28;20279;-82
2023/03/11 10:47:48;;;;;;;0.57;0.57;;;;;;;;;;4997774;28;20177;-85
2023/03/11 10:50:18;;;;;;;0.60;0.60;;;;;;;;;;4995787;28;20243;-82
2023/03/11 10:53:03;;;;;;;0.60;0.60;;;;;;;;;;4995342;28;20204;-80
2023/03/11 10:55:29;;;;;;;0.50;0.50;;;;;;;;;;4996319;28;20196;-82
2023/03/11 10:58:03;;;;;;;0.60;0.60;;;;;;;;;;4997445;28;20644;-84
2023/03/11 11:00:30;;;;;;;0.57;0.57;;;;;;;;;;4998499;28;20224;-84
2023/03/11 11:02:58;;;;;;;0.60;0.60;;;;;;;;;;4996856;28;20280;-84
2023/03/11 11:05:34;;;;;;;0.70;0.70;;;;;;;;;;4992066;28;20185;-86
2023/03/11 11:08:05;;;;;;;0.60;0.60;;;;;;;;;;4995169;28;20628;-81
2023/03/11 11:10:31;;;;;;;0.57;0.57;;;;;;;;;;4995346;28;20326;-83
2023/03/11 11:12:58;;;;;;;0.50;0.50;;;;;;;;;;4995877;28;20247;-82
2023/03/11 11:15:25;;;;;;;0.40;0.40;;;;;;;;;;4994384;28;20219;-82
2023/03/11 11:17:54;;;;;;;0.67;0.67;;;;;;;;;;4996561;28;20304;-82
2023/03/11 11:20:21;;;;;;;0.50;0.50;;;;;;;;;;4996915;28;20278;-82
2023/03/11 11:22:57;;;;;;;0.50;0.50;;;;;;;;;;4996549;28;20226;-84
2023/03/11 11:25:26;;;;;;;0.50;0.50;;;;;;;;;;4994605;28;20177;-83
2023/03/11 11:28:00;;;;;;;0.53;0.53;;;;;;;;;;5000213;28;20197;-84
2023/03/11 11:30:27;;;;;;;0.50;0.50;;;;;;;;;;4995200;28;20184;-87
2023/03/11 11:32:54;;;;;;;0.40;0.40;;;;;;;;;;4997801;28;20312;-87
2023/03/11 11:35:21;;;;;;;0.40;0.40;;;;;;;;;;5098909;22;20161;-83
2023/03/11 11:37:49;;;;;;;0.30;0.30;;;;;;;;;;5015899;28;20268;-82
2023/03/11 11:40:15;;;;;;;0.40;0.40;;;;;;;;;;5016657;28;20306;-81
2023/03/11 11:43:04;;;;;;;0.30;0.30;;;;;;;;;;5010803;28;20197;-82
2023/03/11 11:45:33;;;;;;;0.40;0.40;;;;;;;;;;4996836;28;20204;-82
2023/03/11 11:48:02;;;;;;;0.40;0.40;;;;;;;;;;4997112;28;20173;-84
2023/03/11 11:50:42;;;;;;;0.50;0.50;;;;;;;;;;4995624;28;20249;-80
2023/03/11 11:53:22;;;;;;;0.50;0.50;;;;;;;;;;4996025;28;20236;-81
2023/03/11 11:55:51;;;;;;;0.43;0.43;;;;;;;;;;4997885;28;20169;-81
2023/03/11 11:58:17;;;;;;;0.50;0.50;;;;;;;;;;4997537;28;20248;-82
2023/03/11 12:00:56;;;;;;;0.60;0.60;;;;;;;;;;4996639;28;20217;-83
2023/03/11 12:03:25;;;;;;;0.50;0.50;;;;;;;;;;4997469;28;20204;-81
2023/03/11 12:05:57;;;;;;;0.70;0.70;;;;;;;;;;4998295;28;20245;-81
2023/03/11 12:08:30;;;;;;;0.70;0.70;;;;;;;;;;5000759;28;20514;-79
2023/03/11 12:10:59;;;;;;;0.40;0.40;;;;;;;;;;4997754;28;20496;-80
2023/03/11 12:13:43;;;;;;;0.50;0.50;;;;;;;;;;5016859;28;20224;-78
2023/03/11 12:16:29;;;;;;;0.60;0.60;;;;;;;;;;5018341;28;20169;-79
2023/03/11 12:19:02;;;;;;;0.60;0.60;;;;;;;;;;4996718;28;20228;-83
2023/03/11 12:21:47;;;;;;;0.70;0.70;;;;;;;;;;4999410;28;20645;-80
2023/03/11 12:24:31;;;;;;;0.60;0.60;;;;;;;;;;4999328;28;20225;-80
2023/03/11 12:27:03;;;;;;;0.53;0.53;;;;;;;;;;4998821;28;20181;-79
2023/03/11 12:29:33;;;;;;;0.60;0.60;;;;;;;;;;5000003;28;20637;-79
2023/03/11 12:32:00;;;;;;;0.53;0.53;;;;;;;;;;4999542;28;20189;-82
2023/03/11 12:34:27;;;;;;;0.50;0.50;;;;;;;;;;4998492;28;20193;-81
2023/03/11 12:36:55;;;;;;;0.43;0.43;;;;;;;;;;4999438;28;20200;-79
2023/03/11 12:39:27;;;;;;;0.50;0.50;;;;;;;;;;4998733;28;20531;-81
2023/03/11 12:42:12;;;;;;;0.50;0.50;;;;;;;;;;4999776;28;20185;-81
2023/03/11 12:44:38;;;;;;;0.40;0.40;;;;;;;;;;4998445;28;20181;-83
2023/03/11 12:47:07;;;;;;;0.60;0.60;;;;;;;;;;4999427;28;20177;-80
2023/03/11 12:49:36;;;;;;;0.47;0.47;;;;;;;;;;4999697;28;20572;-80
2023/03/11 12:52:02;;;;;;;0.50;0.50;;;;;;;;;;4998730;28;20533;-80
2023/03/11 12:54:31;;;;;;;0.50;0.50;;;;;;;;;;4997834;28;20239;-79
2023/03/11 12:56:57;;;;;;;0.50;0.50;;;;;;;;;;4998045;28;20177;-79
2023/03/11 12:59:42;;;;;;;0.60;0.60;;;;;;;;;;4997144;28;20597;-77
2023/03/11 13:02:26;;;;;;;0.60;0.60;;;;;;;;;;4995093;28;20170;-78
2023/03/11 13:04:59;;;;;;;0.40;0.40;;;;;;;;;;4995945;28;20188;-79
2023/03/11 13:07:42;;;;;;;0.47;0.47;;;;;;;;;;4994895;28;20712;-78
2023/03/11 13:10:40;;;;;;;0.57;0.57;;;;;;;;;;4996701;28;20177;-78
2023/03/11 13:13:21;;;;;;;0.50;0.50;;;;;;;;;;4973937;28;20259;-78
2023/03/11 13:15:47;;;;;;;0.70;0.70;;;;;;;;;;4994874;28;20752;-78
2023/03/11 13:18:13;;;;;;;0.60;0.60;;;;;;;;;;4997168;28;20277;-78
2023/03/11 13:20:42;;;;;;;0.60;0.60;;;;;;;;;;4996411;28;20217;-79
2023/03/11 13:23:19;;;;;;;0.70;0.70;;;;;;;;;;4996859;28;20288;-80
2023/03/11 13:25:51;;;;;;;0.57;0.57;;;;;;;;;;4996518;28;20172;-79
2023/03/11 13:28:16;;;;;;;0.50;0.50;;;;;;;;;;4996292;28;20185;-78
2023/03/11 13:30:49;;;;;;;0.60;0.60;;;;;;;;;;4994981;28;20177;-78
2023/03/11 13:33:24;;;;;;;0.60;0.60;;;;;;;;;;4993828;28;20193;-78
2023/03/11 13:35:58;;;;;;;0.60;0.60;;;;;;;;;;4995496;28;20292;-79
2023/03/11 13:38:42;;;;;;;0.70;0.70;;;;;;;;;;4995013;28;20173;-78
2023/03/11 13:41:17;;;;;;;0.70;0.70;;;;;;;;;;4994627;28;20259;-78
2023/03/11 13:43:44;;;;;;;0.63;0.63;;;;;;;;;;4995158;28;20196;-78
2023/03/11 13:46:19;;;;;;;0.60;0.60;;;;;;;;;;4997185;28;20272;-78
2023/03/11 13:48:47;;;;;;;0.60;0.60;;;;;;;;;;4996968;28;20296;-79
2023/03/11 13:51:19;;;;;;;0.73;0.73;;;;;;;;;;4996524;28;20239;-78
2023/03/11 13:53:47;;;;;;;0.70;0.70;;;;;;;;;;4995406;28;20205;-76
2023/03/11 13:56:18;;;;;;;0.60;0.60;;;;;;;;;;4996268;28;20192;-78
2023/03/11 13:58:44;;;;;;;0.70;0.70;;;;;;;;;;4996371;28;20207;-80
2023/03/11 14:01:15;;;;;;;0.60;0.60;;;;;;;;;;4996287;28;20687;-78
2023/03/11 14:03:42;;;;;;;0.70;0.70;;;;;;;;;;4996819;28;20207;-78
2023/03/11 14:06:11;;;;;;;0.73;0.73;;;;;;;;;;4996700;28;20189;-77
2023/03/11 14:08:38;;;;;;;0.70;0.70;;;;;;;;;;4995844;28;20224;-77
2023/03/11 14:11:04;;;;;;;0.70;0.70;;;;;;;;;;4998561;28;20648;-76
2023/03/11 14:13:30;;;;;;;0.63;0.63;;;;;;;;;;4999532;28;20204;-76
2023/03/11 14:15:59;;;;;;;0.67;0.67;;;;;;;;;;4998442;28;20188;-76
2023/03/11 14:18:25;;;;;;;0.60;0.60;;;;;;;;;;4999244;28;20181;-77
2023/03/11 14:20:51;;;;;;;0.50;0.50;;;;;;;;;;4999096;28;20271;-76
2023/03/11 14:23:18;;;;;;;0.60;0.60;;;;;;;;;;4997713;28;20619;-76
2023/03/11 14:25:44;;;;;;;0.70;0.70;;;;;;;;;;4998401;28;20197;-76
2023/03/11 14:28:19;;;;;;;0.63;0.63;;;;;;;;;;4998621;28;20181;-76
2023/03/11 14:30:58;;;;;;;0.60;0.60;;;;;;;;;;5000190;28;20188;-77
2023/03/11 14:33:24;;;;;;;0.60;0.60;;;;;;;;;;4998589;28;20203;-76
2023/03/11 14:35:52;;;;;;;0.70;0.70;;;;;;;;;;4998697;28;20189;-77
2023/03/11 14:38:21;;;;;;;0.57;0.57;;;;;;;;;;5000142;28;20332;-76
2023/03/11 14:40:50;;;;;;;0.80;0.80;;;;;;;;;;5002005;28;20359;-77
2023/03/11 14:43:16;;;;;;;0.70;0.70;;;;;;;;;;5001305;28;20676;-76
2023/03/11 14:45:42;;;;;;;0.70;0.70;;;;;;;;;;5001848;28;20185;-76
2023/03/11 14:48:14;;;;;;;0.70;0.70;;;;;;;;;;5000178;28;20181;-76
2023/03/11 14:50:40;;;;;;;0.50;0.50;;;;;;;;;;5005726;28;20181;-77
2023/03/11 14:53:14;;;;;;;0.70;0.70;;;;;;;;;;5013493;28;20216;-79